Time;durP1;ratioP1;P1;durP2;ratioP2;P2;SDS_P1;SDS_P2;PMS_P1;PMS_P2;Temp;Humidity;BMP_temperature;BMP_pressure;BME280_temperature;BME280_humidity;BME280_pressure;Samples;Min_cycle;Max_cycle;Signal;HPM_P1;HPM_P2
2021/09/12 00:01:25;;;;;;;55.60;47.03;;;;;;;;;;10274961;28;20052;-64
2021/09/12 00:06:26;;;;;;;54.17;48.35;;;;;;;;;;10275676;28;20081;-64
2021/09/12 00:11:25;;;;;;;56.83;47.85;;;;;;;;;;10275640;28;20434;-65
2021/09/12 00:16:23;;;;;;;50.55;45.05;;;;;;;;;;10275124;28;20049;-65
2021/09/12 00:21:21;;;;;;;49.35;39.45;;;;;;;;;;10275010;28;20045;-64
2021/09/12 00:26:21;;;;;;;46.05;33.85;;;;;;;;;;10274688;28;20068;-64
2021/09/12 00:31:19;;;;;;;40.42;30.25;;;;;;;;;;10274617;28;20418;-65
2021/09/12 00:36:18;;;;;;;42.38;28.83;;;;;;;;;;10275128;28;20053;-65
2021/09/12 00:41:17;;;;;;;35.88;27.63;;;;;;;;;;10275554;28;20506;-65
2021/09/12 00:46:17;;;;;;;34.63;28.20;;;;;;;;;;10274681;28;20498;-65
2021/09/12 00:51:15;;;;;;;37.92;26.08;;;;;;;;;;10275276;28;20056;-65
2021/09/12 00:56:13;;;;;;;40.00;25.35;;;;;;;;;;10308245;28;20037;-64
2021/09/12 01:01:12;;;;;;;30.33;23.20;;;;;;;;;;10281871;28;20041;-64
2021/09/12 01:06:12;;;;;;;25.55;19.75;;;;;;;;;;10281450;28;20441;-64
2021/09/12 01:11:10;;;;;;;25.83;21.00;;;;;;;;;;10281425;28;20049;-64
2021/09/12 01:16:13;;;;;;;23.60;18.95;;;;;;;;;;10281225;28;20072;-64
2021/09/12 01:21:13;;;;;;;25.23;20.50;;;;;;;;;;10300666;28;20049;-64
2021/09/12 01:26:13;;;;;;;26.13;20.40;;;;;;;;;;10292398;28;20053;-64
2021/09/12 01:31:18;;;;;;;27.92;17.70;;;;;;;;;;10280648;28;20081;-65
2021/09/12 01:36:17;;;;;;;25.48;17.27;;;;;;;;;;10280697;28;20502;-64
2021/09/12 01:41:17;;;;;;;22.65;17.38;;;;;;;;;;10280549;28;20423;-65
2021/09/12 01:46:15;;;;;;;20.92;16.35;;;;;;;;;;10279642;28;20079;-65
2021/09/12 01:51:14;;;;;;;24.70;17.98;;;;;;;;;;10279711;28;20045;-65
2021/09/12 01:56:12;;;;;;;23.38;15.77;;;;;;;;;;10279636;28;20065;-65
2021/09/12 02:01:12;;;;;;;18.13;15.50;;;;;;;;;;10279152;28;20045;-65
2021/09/12 02:06:11;;;;;;;21.25;16.27;;;;;;;;;;10278806;28;20081;-65
2021/09/12 02:11:09;;;;;;;19.75;14.52;;;;;;;;;;10279056;28;20041;-65
2021/09/12 02:16:08;;;;;;;24.00;13.75;;;;;;;;;;10278680;28;20406;-65
2021/09/12 02:21:08;;;;;;;18.23;13.15;;;;;;;;;;10278667;28;20080;-65
2021/09/12 02:26:06;;;;;;;20.75;12.88;;;;;;;;;;10278161;28;20072;-65
2021/09/12 02:31:04;;;;;;;19.50;13.43;;;;;;;;;;10278558;28;20485;-65
2021/09/12 02:36:03;;;;;;;20.98;12.98;;;;;;;;;;10278270;28;20049;-65
2021/09/12 02:41:02;;;;;;;20.05;13.73;;;;;;;;;;10277813;28;20068;-65
2021/09/12 02:46:01;;;;;;;14.68;12.75;;;;;;;;;;10277442;28;20072;-65
2021/09/12 02:50:59;;;;;;;20.73;12.90;;;;;;;;;;10277130;28;20513;-65
2021/09/12 02:55:58;;;;;;;16.20;13.70;;;;;;;;;;10277129;28;20040;-65
2021/09/12 03:00:57;;;;;;;18.77;13.85;;;;;;;;;;10277057;28;20076;-65
2021/09/12 03:05:56;;;;;;;17.63;13.48;;;;;;;;;;10276575;28;20052;-65
2021/09/12 03:10:54;;;;;;;15.95;14.15;;;;;;;;;;10276512;28;20053;-65
2021/09/12 03:15:53;;;;;;;19.08;14.93;;;;;;;;;;10276420;28;20553;-65
2021/09/12 03:20:53;;;;;;;19.38;14.52;;;;;;;;;;10276054;28;20080;-65
2021/09/12 03:25:51;;;;;;;19.42;14.30;;;;;;;;;;10276074;28;20076;-65
2021/09/12 03:30:49;;;;;;;21.80;15.32;;;;;;;;;;10275856;28;20045;-65
2021/09/12 03:35:47;;;;;;;22.63;14.07;;;;;;;;;;10275902;28;20045;-65
2021/09/12 03:40:47;;;;;;;26.02;15.10;;;;;;;;;;10275625;28;20047;-65
2021/09/12 03:45:45;;;;;;;15.73;13.73;;;;;;;;;;10275918;28;20107;-65
2021/09/12 03:50:44;;;;;;;20.63;14.75;;;;;;;;;;10275555;28;20517;-65
2021/09/12 03:55:43;;;;;;;18.60;15.07;;;;;;;;;;10275445;28;20037;-65
2021/09/12 04:00:42;;;;;;;21.65;15.90;;;;;;;;;;10275306;28;20048;-65
2021/09/12 04:05:41;;;;;;;25.65;15.88;;;;;;;;;;10275105;28;20498;-65
2021/09/12 04:10:39;;;;;;;20.48;15.52;;;;;;;;;;10275038;28;20041;-64
2021/09/12 04:15:38;;;;;;;21.65;14.65;;;;;;;;;;10274931;28;20048;-65
2021/09/12 04:20:37;;;;;;;22.95;18.08;;;;;;;;;;10273750;28;20064;-64
2021/09/12 04:25:36;;;;;;;25.80;18.50;;;;;;;;;;10274722;28;20072;-64
2021/09/12 04:30:34;;;;;;;23.35;15.85;;;;;;;;;;10295408;28;20052;-64
2021/09/12 04:35:32;;;;;;;20.15;16.73;;;;;;;;;;10293752;28;20045;-64
2021/09/12 04:40:32;;;;;;;25.23;18.20;;;;;;;;;;10282264;28;20064;-63
2021/09/12 04:45:31;;;;;;;18.02;15.68;;;;;;;;;;10282054;28;20072;-64
2021/09/12 04:50:29;;;;;;;20.02;14.98;;;;;;;;;;10282942;28;20037;-64
2021/09/12 04:55:27;;;;;;;21.80;17.77;;;;;;;;;;10289014;28;20048;-64
2021/09/12 05:00:27;;;;;;;22.98;18.05;;;;;;;;;;10295684;28;20521;-64
2021/09/12 05:05:25;;;;;;;53.13;39.20;;;;;;;;;;10281795;28;20100;-64
2021/09/12 05:10:24;;;;;;;23.90;18.33;;;;;;;;;;10282282;28;20049;-64
2021/09/12 05:15:22;;;;;;;27.20;19.70;;;;;;;;;;10281915;28;20045;-64
2021/09/12 05:20:22;;;;;;;24.50;17.30;;;;;;;;;;10281646;28;20080;-64
2021/09/12 05:25:21;;;;;;;23.35;17.38;;;;;;;;;;10281473;28;20080;-65
2021/09/12 05:30:19;;;;;;;25.73;20.42;;;;;;;;;;10281405;28;20037;-64
2021/09/12 05:35:17;;;;;;;25.58;19.67;;;;;;;;;;10281195;28;20076;-64
2021/09/12 05:40:17;;;;;;;29.40;23.58;;;;;;;;;;10281146;28;20053;-64
2021/09/12 05:45:16;;;;;;;32.30;24.98;;;;;;;;;;10280818;28;20106;-64
2021/09/12 05:50:14;;;;;;;36.05;25.60;;;;;;;;;;10280627;28;20041;-64
2021/09/12 05:55:12;;;;;;;31.70;24.52;;;;;;;;;;10280580;28;20072;-64
2021/09/12 06:00:12;;;;;;;32.95;23.30;;;;;;;;;;10280138;28;20041;-65
2021/09/12 06:05:11;;;;;;;30.88;26.17;;;;;;;;;;10278992;28;20092;-64
2021/09/12 06:10:09;;;;;;;27.05;23.23;;;;;;;;;;10279757;28;20068;-64
2021/09/12 06:15:08;;;;;;;39.53;24.40;;;;;;;;;;10279839;28;20053;-65
2021/09/12 06:20:08;;;;;;;31.23;22.75;;;;;;;;;;10279385;28;20045;-63
2021/09/12 06:25:07;;;;;;;38.97;21.42;;;;;;;;;;10279216;28;20040;-63
2021/09/12 06:30:06;;;;;;;28.30;24.38;;;;;;;;;;10278906;28;20557;-64
2021/09/12 06:35:05;;;;;;;50.50;38.75;;;;;;;;;;10278788;28;20088;-64
2021/09/12 06:40:06;;;;;;;35.30;26.67;;;;;;;;;;10278650;28;20422;-63
2021/09/12 06:45:05;;;;;;;42.33;32.13;;;;;;;;;;10278354;28;20081;-63
2021/09/12 06:50:03;;;;;;;31.27;24.77;;;;;;;;;;10277129;28;20049;-63
2021/09/12 06:55:02;;;;;;;32.00;24.88;;;;;;;;;;10277429;28;20045;-63
2021/09/12 07:00:04;;;;;;;32.63;24.73;;;;;;;;;;10277842;28;20084;-64
2021/09/12 07:05:03;;;;;;;27.73;23.85;;;;;;;;;;10276876;28;20053;-63
2021/09/12 07:10:01;;;;;;;35.92;22.10;;;;;;;;;;10277678;28;20482;-64
2021/09/12 07:15:00;;;;;;;32.47;21.30;;;;;;;;;;10277413;28;20286;-63
2021/09/12 07:20:00;;;;;;;29.40;21.45;;;;;;;;;;10275784;28;20342;-65
2021/09/12 07:24:58;;;;;;;24.98;21.77;;;;;;;;;;10276847;28;20407;-64
2021/09/12 07:29:56;;;;;;;25.20;21.67;;;;;;;;;;10276762;28;20064;-65
2021/09/12 07:34:55;;;;;;;26.55;20.52;;;;;;;;;;10276763;28;20418;-64
2021/09/12 07:39:55;;;;;;;26.40;21.35;;;;;;;;;;10276665;28;20490;-64
2021/09/12 07:44:56;;;;;;;26.73;21.63;;;;;;;;;;10276541;28;20049;-64
2021/09/12 07:49:55;;;;;;;34.17;22.67;;;;;;;;;;10276367;28;20080;-64
2021/09/12 07:54:55;;;;;;;31.70;21.70;;;;;;;;;;10276413;28;20048;-65
2021/09/12 07:59:53;;;;;;;32.78;20.02;;;;;;;;;;10276186;28;20518;-65
2021/09/12 08:04:51;;;;;;;39.05;20.73;;;;;;;;;;10304530;28;20068;-64
2021/09/12 08:09:50;;;;;;;25.30;19.88;;;;;;;;;;10289210;28;20057;-65
2021/09/12 08:14:50;;;;;;;23.65;18.42;;;;;;;;;;10284130;28;20052;-64
2021/09/12 08:19:48;;;;;;;26.02;19.13;;;;;;;;;;10283881;28;20045;-64
2021/09/12 08:24:46;;;;;;;26.05;17.02;;;;;;;;;;10283641;28;20073;-64
2021/09/12 08:29:45;;;;;;;21.15;16.38;;;;;;;;;;10291762;28;20052;-64
2021/09/12 08:34:44;;;;;;;22.33;17.65;;;;;;;;;;10297685;28;20052;-65
2021/09/12 08:39:45;;;;;;;19.00;17.00;;;;;;;;;;10283406;28;20041;-65
2021/09/12 08:44:45;;;;;;;19.33;15.73;;;;;;;;;;10282958;28;20151;-65
2021/09/12 08:49:45;;;;;;;19.20;15.65;;;;;;;;;;10282780;28;20079;-65
2021/09/12 08:54:43;;;;;;;27.35;17.80;;;;;;;;;;10282952;28;20045;-65
2021/09/12 08:59:47;;;;;;;23.63;16.95;;;;;;;;;;10282388;28;20041;-64
2021/09/12 09:04:47;;;;;;;18.25;15.30;;;;;;;;;;10281831;28;20084;-65
2021/09/12 09:09:46;;;;;;;27.35;15.80;;;;;;;;;;10282070;28;20079;-65
2021/09/12 09:14:45;;;;;;;23.10;15.18;;;;;;;;;;10281959;28;20049;-65
2021/09/12 09:19:52;;;;;;;26.00;16.02;;;;;;;;;;10280042;28;20410;-64
2021/09/12 09:24:50;;;;;;;27.95;14.48;;;;;;;;;;10281418;28;20434;-64
2021/09/12 09:29:54;;;;;;;20.55;12.43;;;;;;;;;;10281280;28;20510;-65
2021/09/12 09:34:58;;;;;;;21.58;13.50;;;;;;;;;;10280351;28;20423;-65
2021/09/12 09:39:57;;;;;;;18.05;9.93;;;;;;;;;;10281188;28;20052;-64
2021/09/12 09:44:58;;;;;;;12.85;9.43;;;;;;;;;;10280907;28;20041;-65
2021/09/12 09:50:08;;;;;;;14.38;8.55;;;;;;;;;;10279557;28;20460;-65
2021/09/12 09:55:07;;;;;;;13.23;8.63;;;;;;;;;;10280527;28;20060;-65
2021/09/12 10:00:06;;;;;;;20.08;8.30;;;;;;;;;;10280265;28;20040;-64
2021/09/12 10:05:07;;;;;;;8.48;6.57;;;;;;;;;;10279272;28;20100;-65
2021/09/12 10:10:09;;;;;;;13.55;7.70;;;;;;;;;;10279360;28;20159;-65
2021/09/12 10:15:10;;;;;;;17.00;9.02;;;;;;;;;;10278922;28;20049;-64
2021/09/12 10:20:11;;;;;;;21.10;8.77;;;;;;;;;;10279334;28;20045;-63
2021/09/12 10:25:10;;;;;;;16.90;10.48;;;;;;;;;;10279051;28;20057;-62
2021/09/12 10:30:19;;;;;;;10.20;7.05;;;;;;;;;;10277823;28;20533;-62
2021/09/12 10:35:24;;;;;;;13.52;7.72;;;;;;;;;;10276800;28;20076;-65
2021/09/12 10:40:22;;;;;;;14.60;8.00;;;;;;;;;;10275552;28;20509;-64
2021/09/12 10:45:21;;;;;;;14.98;11.60;;;;;;;;;;10276525;28;20068;-64
2021/09/12 10:50:38;;;;;;;8.85;6.80;;;;;;;;;;10277138;28;20080;-64
2021/09/12 10:56:07;;;;;;;18.17;8.65;;;;;;;;;;10351928;27;20767;-63
2021/09/12 11:01:08;;;;;;;15.55;7.45;;;;;;;;;;10337419;28;20107;-63
2021/09/12 11:06:15;;;;;;;16.25;8.10;;;;;;;;;;10351694;28;20508;-64
2021/09/12 11:11:13;;;;;;;14.27;7.75;;;;;;;;;;10351263;28;20037;-65
2021/09/12 11:16:16;;;;;;;14.32;7.43;;;;;;;;;;10350492;28;20040;-64
2021/09/12 11:21:27;;;;;;;11.00;7.55;;;;;;;;;;10351638;28;20051;-65
2021/09/12 11:26:26;;;;;;;12.25;7.53;;;;;;;;;;10350878;28;20048;-65
2021/09/12 11:31:28;;;;;;;10.82;7.95;;;;;;;;;;10350631;28;20103;-65
2021/09/12 11:36:27;;;;;;;13.68;6.90;;;;;;;;;;10349522;28;20560;-66
2021/09/12 11:41:26;;;;;;;12.10;6.97;;;;;;;;;;10356743;28;20055;-64
2021/09/12 11:46:26;;;;;;;11.15;6.45;;;;;;;;;;10350909;28;20044;-64
2021/09/12 11:51:30;;;;;;;8.50;5.90;;;;;;;;;;10350177;28;20080;-64
2021/09/12 11:56:28;;;;;;;13.65;6.22;;;;;;;;;;10349072;28;20044;-64
2021/09/12 12:01:27;;;;;;;11.00;5.78;;;;;;;;;;10350084;28;20433;-65
2021/09/12 12:06:26;;;;;;;9.38;5.32;;;;;;;;;;10328022;28;20055;-66
2021/09/12 12:11:25;;;;;;;13.48;5.55;;;;;;;;;;10324386;28;20490;-65
2021/09/12 12:16:24;;;;;;;9.40;5.50;;;;;;;;;;10321686;28;20053;-65
2021/09/12 12:21:22;;;;;;;8.75;6.03;;;;;;;;;;10321520;28;20119;-65
2021/09/12 12:26:21;;;;;;;8.75;6.00;;;;;;;;;;10321259;28;20036;-65
2021/09/12 12:31:21;;;;;;;11.02;5.82;;;;;;;;;;10321451;28;20044;-65
2021/09/12 12:36:22;;;;;;;11.75;5.72;;;;;;;;;;10320810;28;20041;-66
2021/09/12 12:41:23;;;;;;;13.27;6.00;;;;;;;;;;10320720;28;20044;-65
2021/09/12 12:46:42;;;;;;;10.88;6.13;;;;;;;;;;10320222;28;20044;-65
2021/09/12 12:51:41;;;;;;;11.15;6.47;;;;;;;;;;10320396;28;20078;-66
2021/09/12 12:56:39;;;;;;;10.27;5.93;;;;;;;;;;10320289;28;20103;-65
2021/09/12 13:01:39;;;;;;;9.82;5.90;;;;;;;;;;10319870;28;20417;-65
2021/09/12 13:06:38;;;;;;;11.63;6.68;;;;;;;;;;10319766;28;20063;-65
2021/09/12 13:11:37;;;;;;;14.65;6.50;;;;;;;;;;10319775;28;20045;-65
2021/09/12 13:16:36;;;;;;;9.40;5.63;;;;;;;;;;10317734;28;20265;-64
2021/09/12 13:21:35;;;;;;;11.23;5.93;;;;;;;;;;10319403;28;20083;-64
2021/09/12 13:26:34;;;;;;;9.13;7.15;;;;;;;;;;10318917;28;20505;-64
2021/09/12 13:31:33;;;;;;;11.68;6.95;;;;;;;;;;10319007;28;20044;-64
2021/09/12 13:36:31;;;;;;;9.20;6.65;;;;;;;;;;10318376;28;20086;-64
2021/09/12 13:41:31;;;;;;;13.10;6.63;;;;;;;;;;10318341;28;20410;-64
2021/09/12 13:46:30;;;;;;;10.30;6.45;;;;;;;;;;10318225;28;20048;-64
2021/09/12 13:51:28;;;;;;;11.65;6.88;;;;;;;;;;10317416;28;20087;-64
2021/09/12 13:56:26;;;;;;;11.55;6.55;;;;;;;;;;10317690;28;20100;-62
2021/09/12 14:01:26;;;;;;;11.45;6.05;;;;;;;;;;10317508;28;20080;-62
2021/09/12 14:06:25;;;;;;;10.38;6.47;;;;;;;;;;10317386;28;20045;-63
2021/09/12 14:11:23;;;;;;;12.32;6.80;;;;;;;;;;10317399;28;20052;-63
2021/09/12 14:16:21;;;;;;;8.93;7.15;;;;;;;;;;10317310;28;20076;-64
2021/09/12 14:21:21;;;;;;;10.93;7.82;;;;;;;;;;10316648;28;20053;-63
2021/09/12 14:26:19;;;;;;;14.60;9.02;;;;;;;;;;10316451;28;20036;-63
2021/09/12 14:31:19;;;;;;;12.23;7.93;;;;;;;;;;10316580;28;20060;-63
2021/09/12 14:36:18;;;;;;;22.13;9.30;;;;;;;;;;10315748;28;20087;-64
2021/09/12 14:41:17;;;;;;;12.77;8.35;;;;;;;;;;10316558;28;20051;-63
2021/09/12 14:46:16;;;;;;;14.75;9.18;;;;;;;;;;10317102;28;20037;-63
2021/09/12 14:51:14;;;;;;;14.80;9.77;;;;;;;;;;10316005;28;20055;-63
2021/09/12 14:56:17;;;;;;;22.70;10.25;;;;;;;;;;10316612;28;20423;-64
2021/09/12 15:01:16;;;;;;;9.43;6.75;;;;;;;;;;10316737;28;20056;-63
2021/09/12 15:06:15;;;;;;;12.90;8.10;;;;;;;;;;10315947;28;20045;-63
2021/09/12 15:11:13;;;;;;;15.55;10.95;;;;;;;;;;10316251;28;20505;-63
2021/09/12 15:16:12;;;;;;;16.77;12.68;;;;;;;;;;10292493;28;20514;-64
2021/09/12 15:21:11;;;;;;;23.58;12.70;;;;;;;;;;10312423;28;20069;-63
2021/09/12 15:26:10;;;;;;;19.85;10.77;;;;;;;;;;10295679;28;20053;-63
2021/09/12 15:31:08;;;;;;;24.80;13.95;;;;;;;;;;10290847;28;20072;-64
2021/09/12 15:36:06;;;;;;;27.77;14.60;;;;;;;;;;10269272;28;20481;-64
2021/09/12 15:41:06;;;;;;;18.13;11.73;;;;;;;;;;10276344;28;20080;-64
2021/09/12 15:46:04;;;;;;;21.58;11.88;;;;;;;;;;10294482;28;20439;-62
2021/09/12 15:51:03;;;;;;;18.10;10.50;;;;;;;;;;10317782;28;20059;-63
2021/09/12 15:56:01;;;;;;;13.68;10.55;;;;;;;;;;10298577;28;20060;-63
2021/09/12 16:01:01;;;;;;;13.00;9.23;;;;;;;;;;10297205;28;20068;-63
2021/09/12 16:06:00;;;;;;;16.98;9.55;;;;;;;;;;10300372;28;20068;-64
2021/09/12 16:10:58;;;;;;;11.35;9.75;;;;;;;;;;10313365;28;20575;-63
2021/09/12 16:15:56;;;;;;;18.92;13.13;;;;;;;;;;10305805;28;20534;-62
2021/09/12 16:20:56;;;;;;;21.77;11.20;;;;;;;;;;10302504;28;20060;-63
2021/09/12 16:25:55;;;;;;;23.90;12.55;;;;;;;;;;10316340;28;20044;-63
2021/09/12 16:30:53;;;;;;;12.10;10.05;;;;;;;;;;10310758;28;20482;-63
2021/09/12 16:35:52;;;;;;;11.85;9.90;;;;;;;;;;10318976;28;20486;-64
2021/09/12 16:40:52;;;;;;;13.07;9.40;;;;;;;;;;10305042;28;20521;-64
2021/09/12 16:46:06;;;;;;;19.50;8.93;;;;;;;;;;10305813;28;20076;-64
2021/09/12 16:51:04;;;;;;;16.20;8.95;;;;;;;;;;10309851;28;20080;-63
2021/09/12 16:56:04;;;;;;;14.00;8.70;;;;;;;;;;10309517;28;20099;-63
2021/09/12 17:01:03;;;;;;;9.80;8.38;;;;;;;;;;10310044;28;20079;-63
2021/09/12 17:06:01;;;;;;;13.70;8.20;;;;;;;;;;10307353;28;20501;-63
2021/09/12 17:11:00;;;;;;;9.05;8.00;;;;;;;;;;10311298;28;20072;-63
2021/09/12 17:15:59;;;;;;;13.55;8.27;;;;;;;;;;10313578;28;20083;-65
2021/09/12 17:20:58;;;;;;;10.32;8.35;;;;;;;;;;10312038;28;20110;-65
2021/09/12 17:25:56;;;;;;;9.90;7.07;;;;;;;;;;10315732;28;20072;-65
2021/09/12 17:30:55;;;;;;;12.23;8.88;;;;;;;;;;10318218;28;20463;-64
2021/09/12 17:35:55;;;;;;;18.88;10.35;;;;;;;;;;10314293;28;20076;-63
2021/09/12 17:40:53;;;;;;;11.77;9.55;;;;;;;;;;10315063;28;20095;-64
2021/09/12 17:45:51;;;;;;;16.88;10.77;;;;;;;;;;10295086;28;20524;-64
2021/09/12 17:50:50;;;;;;;12.15;8.82;;;;;;;;;;10285115;28;20044;-64
2021/09/12 17:55:49;;;;;;;26.27;13.02;;;;;;;;;;10277677;28;21308;-64
2021/09/12 18:00:48;;;;;;;24.20;10.18;;;;;;;;;;10306459;28;20518;-65
2021/09/12 18:05:49;;;;;;;14.98;8.98;;;;;;;;;;10280636;28;20080;-65
2021/09/12 18:10:47;;;;;;;15.52;8.43;;;;;;;;;;10270370;28;20080;-64
2021/09/12 18:15:47;;;;;;;15.80;9.38;;;;;;;;;;10275080;28;20507;-63
2021/09/12 18:20:45;;;;;;;18.50;11.65;;;;;;;;;;10270187;28;20084;-63
2021/09/12 18:25:46;;;;;;;18.27;13.10;;;;;;;;;;10271349;28;20084;-64
2021/09/12 18:30:45;;;;;;;24.25;9.93;;;;;;;;;;10271787;28;20060;-64
2021/09/12 18:35:48;;;;;;;17.17;13.13;;;;;;;;;;10274539;28;20512;-64
2021/09/12 18:40:46;;;;;;;24.98;15.07;;;;;;;;;;10294831;28;20478;-64
2021/09/12 18:45:45;;;;;;;19.75;15.32;;;;;;;;;;10294389;28;20068;-64
2021/09/12 18:50:44;;;;;;;21.83;14.98;;;;;;;;;;10273043;28;20072;-64
2021/09/12 18:55:43;;;;;;;14.57;11.00;;;;;;;;;;10273373;28;20076;-64
2021/09/12 19:00:41;;;;;;;18.35;13.20;;;;;;;;;;10273852;28;20068;-65
2021/09/12 19:05:41;;;;;;;19.98;11.90;;;;;;;;;;10297540;28;20076;-64
2021/09/12 19:10:40;;;;;;;95.32;80.07;;;;;;;;;;10303103;28;20049;-62
2021/09/12 19:15:39;;;;;;;63.58;52.58;;;;;;;;;;10289527;28;20076;-63
2021/09/12 19:20:38;;;;;;;18.77;13.05;;;;;;;;;;10296430;28;20068;-64
2021/09/12 19:25:36;;;;;;;40.90;19.88;;;;;;;;;;10292325;28;20290;-64
2021/09/12 19:30:38;;;;;;;22.70;12.48;;;;;;;;;;10292193;28;20064;-63
2021/09/12 19:35:38;;;;;;;23.60;16.30;;;;;;;;;;10317899;28;20430;-63
2021/09/12 19:40:37;;;;;;;30.42;20.00;;;;;;;;;;10297245;28;20072;-64
2021/09/12 19:45:36;;;;;;;24.20;11.98;;;;;;;;;;10295658;28;20474;-66
2021/09/12 19:50:35;;;;;;;17.35;9.88;;;;;;;;;;10302850;28;20473;-65
2021/09/12 19:55:34;;;;;;;20.23;10.30;;;;;;;;;;10302754;28;20072;-65
2021/09/12 20:00:32;;;;;;;15.18;10.38;;;;;;;;;;10279074;28;20462;-64
2021/09/12 20:05:32;;;;;;;19.55;11.30;;;;;;;;;;10280243;28;20084;-64
2021/09/12 20:10:30;;;;;;;15.95;11.00;;;;;;;;;;10282188;28;20041;-64
2021/09/12 20:15:28;;;;;;;18.02;10.77;;;;;;;;;;10280888;28;20072;-64
2021/09/12 20:20:27;;;;;;;16.90;11.30;;;;;;;;;;10282177;28;20398;-64
2021/09/12 20:25:26;;;;;;;14.15;12.13;;;;;;;;;;10283780;28;20079;-63
2021/09/12 20:30:25;;;;;;;20.15;11.10;;;;;;;;;;10293119;28;20075;-64
2021/09/12 20:35:23;;;;;;;17.98;11.45;;;;;;;;;;10297555;28;20076;-64
2021/09/12 20:40:21;;;;;;;16.52;11.00;;;;;;;;;;10281051;28;20041;-64
2021/09/12 20:45:21;;;;;;;23.00;11.40;;;;;;;;;;10291146;28;20069;-64
2021/09/12 20:50:19;;;;;;;17.92;10.20;;;;;;;;;;10280677;28;20190;-64
2021/09/12 20:55:18;;;;;;;13.68;10.68;;;;;;;;;;10280281;28;20092;-64
2021/09/12 21:00:16;;;;;;;14.57;10.30;;;;;;;;;;10280409;28;20056;-64
2021/09/12 21:05:16;;;;;;;22.15;10.60;;;;;;;;;;10280321;28;20040;-64
2021/09/12 21:10:14;;;;;;;26.13;10.85;;;;;;;;;;10279840;28;20048;-64
2021/09/12 21:15:14;;;;;;;19.63;10.57;;;;;;;;;;10278080;28;20540;-64
2021/09/12 21:20:12;;;;;;;18.50;10.85;;;;;;;;;;10279545;28;20115;-64
2021/09/12 21:25:12;;;;;;;13.77;9.75;;;;;;;;;;10279287;28;20517;-64
2021/09/12 21:30:12;;;;;;;16.05;10.40;;;;;;;;;;10279272;28;20414;-64
2021/09/12 21:35:11;;;;;;;16.10;10.38;;;;;;;;;;10278979;28;20438;-64
2021/09/12 21:40:09;;;;;;;17.85;10.63;;;;;;;;;;10278064;28;20045;-64
2021/09/12 21:45:10;;;;;;;16.65;10.98;;;;;;;;;;10278476;28;20081;-64
2021/09/12 21:50:09;;;;;;;16.67;10.65;;;;;;;;;;10278496;28;20037;-64
2021/09/12 21:55:08;;;;;;;14.23;10.85;;;;;;;;;;10276973;28;20064;-64
2021/09/12 22:00:10;;;;;;;17.45;10.05;;;;;;;;;;10278118;28;20045;-65
2021/09/12 22:05:11;;;;;;;13.85;10.43;;;;;;;;;;10277787;28;20056;-64
2021/09/12 22:10:10;;;;;;;12.20;9.40;;;;;;;;;;10277609;28;20505;-65
2021/09/12 22:15:09;;;;;;;20.25;9.70;;;;;;;;;;10277186;28;20087;-64
2021/09/12 22:20:11;;;;;;;11.75;9.63;;;;;;;;;;10277323;28;20501;-64
2021/09/12 22:25:11;;;;;;;21.98;10.65;;;;;;;;;;10277068;28;20061;-64
2021/09/12 22:30:10;;;;;;;19.17;10.15;;;;;;;;;;10275886;28;20087;-65
2021/09/12 22:35:11;;;;;;;13.85;10.25;;;;;;;;;;10276813;28;20107;-64
2021/09/12 22:40:10;;;;;;;21.30;10.52;;;;;;;;;;10276891;28;20039;-64
2021/09/12 22:45:09;;;;;;;15.27;9.27;;;;;;;;;;10295552;28;20053;-64
2021/09/12 22:50:08;;;;;;;15.02;10.55;;;;;;;;;;10299605;28;20072;-64
2021/09/12 22:55:08;;;;;;;13.75;9.18;;;;;;;;;;10275977;28;20075;-64
2021/09/12 23:00:07;;;;;;;10.68;9.57;;;;;;;;;;10276223;28;20045;-64
2021/09/12 23:05:06;;;;;;;14.85;10.13;;;;;;;;;;10276409;28;20052;-64
2021/09/12 23:10:06;;;;;;;21.60;10.27;;;;;;;;;;10276126;28;20052;-64
2021/09/12 23:15:06;;;;;;;18.27;9.75;;;;;;;;;;10314804;28;20044;-64
2021/09/12 23:20:05;;;;;;;14.57;10.15;;;;;;;;;;10276551;28;20422;-64
2021/09/12 23:25:04;;;;;;;16.88;11.05;;;;;;;;;;10275956;28;20045;-64
2021/09/12 23:30:02;;;;;;;13.98;10.25;;;;;;;;;;10274872;28;20083;-64
2021/09/12 23:35:02;;;;;;;21.70;10.00;;;;;;;;;;10275801;28;20491;-63
2021/09/12 23:40:00;;;;;;;15.32;11.10;;;;;;;;;;10275350;28;20079;-63
2021/09/12 23:44:58;;;;;;;16.60;10.88;;;;;;;;;;10275329;28;20053;-64
2021/09/12 23:49:57;;;;;;;15.43;10.52;;;;;;;;;;10275340;28;20048;-64
2021/09/12 23:54:56;;;;;;;17.05;11.43;;;;;;;;;;10274553;28;20068;-64
2021/09/12 23:59:55;;;;;;;20.77;11.57;;;;;;;;;;10276963;28;20087;-64
